sensor_id;sensor_type;location;lat;lon;timestamp;P1;durP1;ratioP1;P2;durP2;ratioP2
18146;SDS011;9199;48.832;9.182;2024-03-02T00:00:18;30.35;;;15.98;;
18146;SDS011;9199;48.832;9.182;2024-03-02T00:02:47;29.40;;;14.65;;
18146;SDS011;9199;48.832;9.182;2024-03-02T00:05:15;26.88;;;14.50;;
18146;SDS011;9199;48.832;9.182;2024-03-02T00:07:46;24.00;;;13.30;;
18146;SDS011;9199;48.832;9.182;2024-03-02T00:10:19;24.75;;;13.32;;
18146;SDS011;9199;48.832;9.182;2024-03-02T00:12:48;23.45;;;13.43;;
18146;SDS011;9199;48.832;9.182;2024-03-02T00:15:22;24.02;;;14.23;;
18146;SDS011;9199;48.832;9.182;2024-03-02T00:18:04;27.92;;;14.15;;
18146;SDS011;9199;48.832;9.182;2024-03-02T00:20:30;24.37;;;13.87;;
18146;SDS011;9199;48.832;9.182;2024-03-02T00:23:01;28.75;;;14.45;;
18146;SDS011;9199;48.832;9.182;2024-03-02T00:25:34;27.02;;;14.23;;
18146;SDS011;9199;48.832;9.182;2024-03-02T00:28:04;23.02;;;12.82;;
18146;SDS011;9199;48.832;9.182;2024-03-02T00:30:51;24.05;;;13.10;;
18146;SDS011;9199;48.832;9.182;2024-03-02T00:33:22;21.93;;;12.20;;
18146;SDS011;9199;48.832;9.182;2024-03-02T00:35:50;21.45;;;11.48;;
18146;SDS011;9199;48.832;9.182;2024-03-02T00:38:18;17.13;;;10.32;;
18146;SDS011;9199;48.832;9.182;2024-03-02T00:40:45;19.17;;;10.43;;
18146;SDS011;9199;48.832;9.182;2024-03-02T00:46:09;20.07;;;11.27;;
18146;SDS011;9199;48.832;9.182;2024-03-02T00:48:44;23.83;;;12.05;;
18146;SDS011;9199;48.832;9.182;2024-03-02T00:51:22;21.40;;;12.10;;
18146;SDS011;9199;48.832;9.182;2024-03-02T00:53:51;20.20;;;11.13;;
18146;SDS011;9199;48.832;9.182;2024-03-02T00:56:20;20.98;;;11.73;;
18146;SDS011;9199;48.832;9.182;2024-03-02T00:58:48;21.97;;;12.70;;
18146;SDS011;9199;48.832;9.182;2024-03-02T01:01:15;25.52;;;13.20;;
18146;SDS011;9199;48.832;9.182;2024-03-02T01:03:42;24.35;;;13.35;;
18146;SDS011;9199;48.832;9.182;2024-03-02T01:06:08;24.13;;;13.43;;
18146;SDS011;9199;48.832;9.182;2024-03-02T01:08:35;21.70;;;13.02;;
18146;SDS011;9199;48.832;9.182;2024-03-02T01:11:04;23.63;;;12.77;;
18146;SDS011;9199;48.832;9.182;2024-03-02T01:13:31;21.67;;;11.80;;
18146;SDS011;9199;48.832;9.182;2024-03-02T01:15:58;21.88;;;12.65;;
18146;SDS011;9199;48.832;9.182;2024-03-02T01:18:24;20.85;;;12.35;;
18146;SDS011;9199;48.832;9.182;2024-03-02T01:20:51;21.00;;;11.95;;
18146;SDS011;9199;48.832;9.182;2024-03-02T01:23:20;22.47;;;12.30;;
18146;SDS011;9199;48.832;9.182;2024-03-02T01:25:46;20.23;;;11.20;;
18146;SDS011;9199;48.832;9.182;2024-03-02T01:28:15;20.50;;;11.82;;
18146;SDS011;9199;48.832;9.182;2024-03-02T01:30:42;24.98;;;13.18;;
18146;SDS011;9199;48.832;9.182;2024-03-02T01:33:08;20.42;;;12.15;;
18146;SDS011;9199;48.832;9.182;2024-03-02T01:35:35;21.33;;;12.13;;
18146;SDS011;9199;48.832;9.182;2024-03-02T01:38:02;20.58;;;11.98;;
18146;SDS011;9199;48.832;9.182;2024-03-02T01:40:31;22.80;;;12.35;;
18146;SDS011;9199;48.832;9.182;2024-03-02T01:42:58;21.35;;;11.80;;
18146;SDS011;9199;48.832;9.182;2024-03-02T01:45:25;21.75;;;12.27;;
18146;SDS011;9199;48.832;9.182;2024-03-02T01:47:52;21.07;;;11.67;;
18146;SDS011;9199;48.832;9.182;2024-03-02T01:50:24;22.33;;;11.40;;
18146;SDS011;9199;48.832;9.182;2024-03-02T01:52:52;20.05;;;11.40;;
18146;SDS011;9199;48.832;9.182;2024-03-02T01:55:19;18.95;;;10.73;;
18146;SDS011;9199;48.832;9.182;2024-03-02T01:57:46;18.52;;;10.73;;
18146;SDS011;9199;48.832;9.182;2024-03-02T02:00:13;20.30;;;10.97;;
18146;SDS011;9199;48.832;9.182;2024-03-02T02:02:42;18.48;;;10.75;;
18146;SDS011;9199;48.832;9.182;2024-03-02T02:05:09;18.73;;;10.35;;
18146;SDS011;9199;48.832;9.182;2024-03-02T02:07:36;18.27;;;10.88;;
18146;SDS011;9199;48.832;9.182;2024-03-02T02:10:03;15.65;;;9.52;;
18146;SDS011;9199;48.832;9.182;2024-03-02T02:12:30;19.27;;;10.53;;
18146;SDS011;9199;48.832;9.182;2024-03-02T02:14:57;18.50;;;10.63;;
18146;SDS011;9199;48.832;9.182;2024-03-02T02:17:24;19.00;;;11.27;;
18146;SDS011;9199;48.832;9.182;2024-03-02T02:19:52;18.80;;;11.45;;
18146;SDS011;9199;48.832;9.182;2024-03-02T02:22:20;18.63;;;11.00;;
18146;SDS011;9199;48.832;9.182;2024-03-02T02:24:46;21.93;;;12.00;;
18146;SDS011;9199;48.832;9.182;2024-03-02T02:27:13;22.45;;;11.75;;
18146;SDS011;9199;48.832;9.182;2024-03-02T02:29:40;19.55;;;11.38;;
18146;SDS011;9199;48.832;9.182;2024-03-02T02:32:07;20.83;;;12.07;;
18146;SDS011;9199;48.832;9.182;2024-03-02T02:34:34;20.80;;;12.52;;
18146;SDS011;9199;48.832;9.182;2024-03-02T02:37:00;22.00;;;11.93;;
18146;SDS011;9199;48.832;9.182;2024-03-02T02:39:29;22.58;;;12.40;;
18146;SDS011;9199;48.832;9.182;2024-03-02T02:41:55;23.92;;;12.40;;
18146;SDS011;9199;48.832;9.182;2024-03-02T02:44:22;23.45;;;13.10;;
18146;SDS011;9199;48.832;9.182;2024-03-02T02:46:49;24.30;;;12.20;;
18146;SDS011;9199;48.832;9.182;2024-03-02T02:49:16;24.30;;;13.03;;
18146;SDS011;9199;48.832;9.182;2024-03-02T02:51:43;22.50;;;13.43;;
18146;SDS011;9199;48.832;9.182;2024-03-02T02:54:09;22.75;;;12.75;;
18146;SDS011;9199;48.832;9.182;2024-03-02T02:56:37;23.60;;;12.65;;
18146;SDS011;9199;48.832;9.182;2024-03-02T02:59:04;23.15;;;12.80;;
18146;SDS011;9199;48.832;9.182;2024-03-02T03:01:31;23.07;;;12.17;;
18146;SDS011;9199;48.832;9.182;2024-03-02T03:03:57;25.73;;;12.82;;
18146;SDS011;9199;48.832;9.182;2024-03-02T03:06:24;24.98;;;12.93;;
18146;SDS011;9199;48.832;9.182;2024-03-02T03:08:51;25.05;;;12.88;;
18146;SDS011;9199;48.832;9.182;2024-03-02T03:11:17;22.08;;;11.95;;
18146;SDS011;9199;48.832;9.182;2024-03-02T03:13:45;21.37;;;12.00;;
18146;SDS011;9199;48.832;9.182;2024-03-02T03:16:13;24.15;;;12.52;;
18146;SDS011;9199;48.832;9.182;2024-03-02T03:18:40;22.98;;;12.20;;
18146;SDS011;9199;48.832;9.182;2024-03-02T03:21:06;23.48;;;12.05;;
18146;SDS011;9199;48.832;9.182;2024-03-02T03:23:33;22.98;;;12.15;;
18146;SDS011;9199;48.832;9.182;2024-03-02T03:26:00;23.73;;;12.80;;
18146;SDS011;9199;48.832;9.182;2024-03-02T03:28:26;23.15;;;11.95;;
18146;SDS011;9199;48.832;9.182;2024-03-02T03:30:54;24.13;;;12.00;;
18146;SDS011;9199;48.832;9.182;2024-03-02T03:33:21;22.73;;;13.27;;
18146;SDS011;9199;48.832;9.182;2024-03-02T03:35:48;24.92;;;13.73;;
18146;SDS011;9199;48.832;9.182;2024-03-02T03:38:14;25.70;;;13.10;;
18146;SDS011;9199;48.832;9.182;2024-03-02T03:40:41;25.05;;;13.18;;
18146;SDS011;9199;48.832;9.182;2024-03-02T03:43:09;23.25;;;13.13;;
18146;SDS011;9199;48.832;9.182;2024-03-02T03:45:35;25.42;;;12.77;;
18146;SDS011;9199;48.832;9.182;2024-03-02T03:48:03;28.25;;;13.15;;
18146;SDS011;9199;48.832;9.182;2024-03-02T03:50:31;27.27;;;14.40;;
18146;SDS011;9199;48.832;9.182;2024-03-02T03:52:57;28.23;;;14.07;;
18146;SDS011;9199;48.832;9.182;2024-03-02T03:55:24;28.90;;;14.35;;
18146;SDS011;9199;48.832;9.182;2024-03-02T03:57:51;26.35;;;13.77;;
18146;SDS011;9199;48.832;9.182;2024-03-02T04:00:18;26.50;;;13.02;;
18146;SDS011;9199;48.832;9.182;2024-03-02T04:02:44;28.80;;;13.60;;
18146;SDS011;9199;48.832;9.182;2024-03-02T04:05:13;26.60;;;13.82;;
18146;SDS011;9199;48.832;9.182;2024-03-02T04:07:39;29.83;;;13.82;;
18146;SDS011;9199;48.832;9.182;2024-03-02T04:10:08;29.25;;;13.95;;
18146;SDS011;9199;48.832;9.182;2024-03-02T04:12:35;25.63;;;12.85;;
18146;SDS011;9199;48.832;9.182;2024-03-02T04:15:03;22.50;;;12.40;;
18146;SDS011;9199;48.832;9.182;2024-03-02T04:17:31;25.15;;;12.15;;
18146;SDS011;9199;48.832;9.182;2024-03-02T04:20:00;25.38;;;11.90;;
18146;SDS011;9199;48.832;9.182;2024-03-02T04:22:31;20.92;;;11.43;;
18146;SDS011;9199;48.832;9.182;2024-03-02T04:25:00;23.90;;;11.95;;
18146;SDS011;9199;48.832;9.182;2024-03-02T04:27:29;26.00;;;13.03;;
18146;SDS011;9199;48.832;9.182;2024-03-02T04:29:56;25.85;;;12.95;;
18146;SDS011;9199;48.832;9.182;2024-03-02T04:32:23;25.02;;;14.00;;
18146;SDS011;9199;48.832;9.182;2024-03-02T04:34:49;25.48;;;13.10;;
18146;SDS011;9199;48.832;9.182;2024-03-02T04:37:16;21.20;;;11.63;;
18146;SDS011;9199;48.832;9.182;2024-03-02T04:39:44;22.37;;;12.53;;
18146;SDS011;9199;48.832;9.182;2024-03-02T04:42:11;21.27;;;11.65;;
18146;SDS011;9199;48.832;9.182;2024-03-02T04:44:38;23.48;;;12.38;;
18146;SDS011;9199;48.832;9.182;2024-03-02T04:47:05;22.70;;;11.85;;
18146;SDS011;9199;48.832;9.182;2024-03-02T04:49:31;23.13;;;12.27;;
18146;SDS011;9199;48.832;9.182;2024-03-02T04:51:58;22.37;;;12.57;;
18146;SDS011;9199;48.832;9.182;2024-03-02T04:54:25;23.17;;;12.05;;
18146;SDS011;9199;48.832;9.182;2024-03-02T04:56:53;24.15;;;12.45;;
18146;SDS011;9199;48.832;9.182;2024-03-02T04:59:19;24.90;;;13.43;;
18146;SDS011;9199;48.832;9.182;2024-03-02T05:01:46;27.08;;;13.40;;
18146;SDS011;9199;48.832;9.182;2024-03-02T05:04:13;29.70;;;13.63;;
18146;SDS011;9199;48.832;9.182;2024-03-02T05:06:40;29.13;;;14.27;;
18146;SDS011;9199;48.832;9.182;2024-03-02T05:09:07;29.40;;;14.63;;
18146;SDS011;9199;48.832;9.182;2024-03-02T05:11:34;35.50;;;15.32;;
18146;SDS011;9199;48.832;9.182;2024-03-02T05:14:38;31.10;;;14.93;;
18146;SDS011;9199;48.832;9.182;2024-03-02T05:17:04;30.47;;;14.10;;
18146;SDS011;9199;48.832;9.182;2024-03-02T05:19:31;31.08;;;14.65;;
18146;SDS011;9199;48.832;9.182;2024-03-02T05:21:58;28.33;;;14.15;;
18146;SDS011;9199;48.832;9.182;2024-03-02T05:24:24;31.15;;;15.20;;
18146;SDS011;9199;48.832;9.182;2024-03-02T05:26:53;29.73;;;14.77;;
18146;SDS011;9199;48.832;9.182;2024-03-02T05:29:20;26.70;;;13.90;;
18146;SDS011;9199;48.832;9.182;2024-03-02T05:31:48;28.15;;;14.55;;
18146;SDS011;9199;48.832;9.182;2024-03-02T05:34:15;25.77;;;13.48;;
18146;SDS011;9199;48.832;9.182;2024-03-02T05:36:41;26.50;;;13.85;;
18146;SDS011;9199;48.832;9.182;2024-03-02T05:39:11;25.17;;;12.82;;
18146;SDS011;9199;48.832;9.182;2024-03-02T05:41:38;28.80;;;14.47;;
18146;SDS011;9199;48.832;9.182;2024-03-02T05:44:05;32.42;;;14.25;;
18146;SDS011;9199;48.832;9.182;2024-03-02T05:46:32;27.38;;;14.07;;
18146;SDS011;9199;48.832;9.182;2024-03-02T05:49:00;30.80;;;13.75;;
18146;SDS011;9199;48.832;9.182;2024-03-02T05:51:27;26.45;;;13.77;;
18146;SDS011;9199;48.832;9.182;2024-03-02T05:53:53;25.87;;;13.00;;
18146;SDS011;9199;48.832;9.182;2024-03-02T05:56:20;27.30;;;14.10;;
18146;SDS011;9199;48.832;9.182;2024-03-02T05:58:47;27.27;;;13.40;;
18146;SDS011;9199;48.832;9.182;2024-03-02T06:01:25;30.80;;;14.38;;
18146;SDS011;9199;48.832;9.182;2024-03-02T06:03:54;28.50;;;14.23;;
18146;SDS011;9199;48.832;9.182;2024-03-02T06:06:22;26.90;;;13.67;;
18146;SDS011;9199;48.832;9.182;2024-03-02T06:08:49;22.88;;;11.70;;
18146;SDS011;9199;48.832;9.182;2024-03-02T06:11:16;20.45;;;10.73;;
18146;SDS011;9199;48.832;9.182;2024-03-02T06:13:43;17.45;;;9.90;;
18146;SDS011;9199;48.832;9.182;2024-03-02T06:16:09;18.10;;;9.25;;
18146;SDS011;9199;48.832;9.182;2024-03-02T06:18:36;18.83;;;10.30;;
18146;SDS011;9199;48.832;9.182;2024-03-02T06:21:04;20.52;;;10.32;;
18146;SDS011;9199;48.832;9.182;2024-03-02T06:23:32;20.13;;;10.60;;
18146;SDS011;9199;48.832;9.182;2024-03-02T06:25:59;17.38;;;10.18;;
18146;SDS011;9199;48.832;9.182;2024-03-02T06:28:27;20.27;;;10.77;;
18146;SDS011;9199;48.832;9.182;2024-03-02T06:30:54;22.03;;;11.47;;
18146;SDS011;9199;48.832;9.182;2024-03-02T06:33:20;22.35;;;11.65;;
18146;SDS011;9199;48.832;9.182;2024-03-02T06:35:47;23.67;;;11.80;;
18146;SDS011;9199;48.832;9.182;2024-03-02T06:38:14;22.23;;;12.40;;
18146;SDS011;9199;48.832;9.182;2024-03-02T06:40:42;22.10;;;11.88;;
18146;SDS011;9199;48.832;9.182;2024-03-02T06:43:09;22.57;;;11.97;;
18146;SDS011;9199;48.832;9.182;2024-03-02T06:45:36;23.75;;;12.27;;
18146;SDS011;9199;48.832;9.182;2024-03-02T06:48:03;23.08;;;12.65;;
18146;SDS011;9199;48.832;9.182;2024-03-02T06:50:30;24.83;;;12.50;;
18146;SDS011;9199;48.832;9.182;2024-03-02T06:52:56;23.30;;;11.18;;
18146;SDS011;9199;48.832;9.182;2024-03-02T06:55:23;22.67;;;10.83;;
18146;SDS011;9199;48.832;9.182;2024-03-02T06:57:51;21.38;;;10.75;;
18146;SDS011;9199;48.832;9.182;2024-03-02T07:00:18;20.45;;;11.20;;
18146;SDS011;9199;48.832;9.182;2024-03-02T07:02:46;20.20;;;10.88;;
18146;SDS011;9199;48.832;9.182;2024-03-02T07:05:13;21.50;;;11.27;;
18146;SDS011;9199;48.832;9.182;2024-03-02T07:07:39;19.87;;;10.30;;
18146;SDS011;9199;48.832;9.182;2024-03-02T07:10:07;20.55;;;10.25;;
18146;SDS011;9199;48.832;9.182;2024-03-02T07:12:34;19.48;;;10.50;;
18146;SDS011;9199;48.832;9.182;2024-03-02T07:15:02;18.83;;;9.85;;
18146;SDS011;9199;48.832;9.182;2024-03-02T07:18:02;18.88;;;9.48;;
18146;SDS011;9199;48.832;9.182;2024-03-02T07:20:29;14.47;;;8.50;;
18146;SDS011;9199;48.832;9.182;2024-03-02T07:22:55;14.52;;;8.57;;
18146;SDS011;9199;48.832;9.182;2024-03-02T07:25:22;14.95;;;8.85;;
18146;SDS011;9199;48.832;9.182;2024-03-02T07:27:48;15.90;;;9.13;;
18146;SDS011;9199;48.832;9.182;2024-03-02T07:30:17;16.20;;;9.38;;
18146;SDS011;9199;48.832;9.182;2024-03-02T07:32:43;17.47;;;8.87;;
18146;SDS011;9199;48.832;9.182;2024-03-02T07:35:11;16.98;;;8.68;;
18146;SDS011;9199;48.832;9.182;2024-03-02T07:37:38;15.25;;;8.65;;
18146;SDS011;9199;48.832;9.182;2024-03-02T07:40:07;15.27;;;8.70;;
18146;SDS011;9199;48.832;9.182;2024-03-02T07:42:36;15.43;;;8.75;;
18146;SDS011;9199;48.832;9.182;2024-03-02T07:45:03;13.53;;;7.80;;
18146;SDS011;9199;48.832;9.182;2024-03-02T07:47:32;15.90;;;8.75;;
18146;SDS011;9199;48.832;9.182;2024-03-02T07:49:59;15.52;;;8.38;;
18146;SDS011;9199;48.832;9.182;2024-03-02T07:52:26;14.85;;;8.20;;
18146;SDS011;9199;48.832;9.182;2024-03-02T07:54:53;15.02;;;8.40;;
18146;SDS011;9199;48.832;9.182;2024-03-02T07:57:20;14.90;;;8.53;;
18146;SDS011;9199;48.832;9.182;2024-03-02T07:59:47;17.42;;;8.13;;
18146;SDS011;9199;48.832;9.182;2024-03-02T08:02:14;13.70;;;8.50;;
18146;SDS011;9199;48.832;9.182;2024-03-02T08:04:42;15.23;;;8.75;;
18146;SDS011;9199;48.832;9.182;2024-03-02T08:07:10;14.68;;;8.35;;
18146;SDS011;9199;48.832;9.182;2024-03-02T08:09:37;15.27;;;8.70;;
18146;SDS011;9199;48.832;9.182;2024-03-02T08:12:04;14.75;;;7.93;;
18146;SDS011;9199;48.832;9.182;2024-03-02T08:14:31;13.80;;;7.78;;
18146;SDS011;9199;48.832;9.182;2024-03-02T08:16:57;13.48;;;8.38;;
18146;SDS011;9199;48.832;9.182;2024-03-02T08:19:26;15.23;;;8.40;;
18146;SDS011;9199;48.832;9.182;2024-03-02T08:21:54;14.00;;;7.50;;
18146;SDS011;9199;48.832;9.182;2024-03-02T08:24:21;15.23;;;7.75;;
18146;SDS011;9199;48.832;9.182;2024-03-02T08:26:48;13.05;;;7.60;;
18146;SDS011;9199;48.832;9.182;2024-03-02T08:29:14;15.65;;;8.50;;
18146;SDS011;9199;48.832;9.182;2024-03-02T08:31:41;12.77;;;7.20;;
18146;SDS011;9199;48.832;9.182;2024-03-02T08:34:08;11.90;;;7.03;;
18146;SDS011;9199;48.832;9.182;2024-03-02T08:36:35;11.85;;;7.22;;
18146;SDS011;9199;48.832;9.182;2024-03-02T08:39:03;12.52;;;7.35;;
18146;SDS011;9199;48.832;9.182;2024-03-02T08:41:40;14.65;;;7.78;;
18146;SDS011;9199;48.832;9.182;2024-03-02T08:44:07;13.10;;;7.40;;
18146;SDS011;9199;48.832;9.182;2024-03-02T08:46:33;11.73;;;7.20;;
18146;SDS011;9199;48.832;9.182;2024-03-02T08:49:00;10.30;;;6.50;;
18146;SDS011;9199;48.832;9.182;2024-03-02T08:51:27;10.50;;;6.22;;
18146;SDS011;9199;48.832;9.182;2024-03-02T08:53:54;11.32;;;6.80;;
18146;SDS011;9199;48.832;9.182;2024-03-02T08:56:22;11.68;;;6.60;;
18146;SDS011;9199;48.832;9.182;2024-03-02T08:58:49;9.73;;;5.60;;
18146;SDS011;9199;48.832;9.182;2024-03-02T09:01:16;10.63;;;5.68;;
18146;SDS011;9199;48.832;9.182;2024-03-02T09:03:43;9.52;;;5.22;;
18146;SDS011;9199;48.832;9.182;2024-03-02T09:06:10;11.32;;;5.50;;
18146;SDS011;9199;48.832;9.182;2024-03-02T09:08:37;8.38;;;5.10;;
18146;SDS011;9199;48.832;9.182;2024-03-02T09:11:04;8.70;;;5.00;;
18146;SDS011;9199;48.832;9.182;2024-03-02T09:13:34;7.35;;;4.55;;
18146;SDS011;9199;48.832;9.182;2024-03-02T09:16:01;8.02;;;4.82;;
18146;SDS011;9199;48.832;9.182;2024-03-02T09:18:28;7.28;;;4.50;;
18146;SDS011;9199;48.832;9.182;2024-03-02T09:20:54;7.60;;;4.80;;
18146;SDS011;9199;48.832;9.182;2024-03-02T09:23:21;8.00;;;5.10;;
18146;SDS011;9199;48.832;9.182;2024-03-02T09:25:48;9.20;;;5.00;;
18146;SDS011;9199;48.832;9.182;2024-03-02T09:28:15;8.45;;;4.93;;
18146;SDS011;9199;48.832;9.182;2024-03-02T09:30:43;7.75;;;4.55;;
18146;SDS011;9199;48.832;9.182;2024-03-02T09:33:10;9.02;;;5.15;;
18146;SDS011;9199;48.832;9.182;2024-03-02T09:35:37;9.10;;;4.70;;
18146;SDS011;9199;48.832;9.182;2024-03-02T09:38:03;8.25;;;4.50;;
18146;SDS011;9199;48.832;9.182;2024-03-02T09:40:30;9.25;;;4.88;;
18146;SDS011;9199;48.832;9.182;2024-03-02T09:42:57;7.82;;;4.65;;
18146;SDS011;9199;48.832;9.182;2024-03-02T09:45:25;7.13;;;4.38;;
18146;SDS011;9199;48.832;9.182;2024-03-02T09:47:54;8.43;;;4.90;;
18146;SDS011;9199;48.832;9.182;2024-03-02T09:50:21;7.38;;;4.40;;
18146;SDS011;9199;48.832;9.182;2024-03-02T09:52:48;8.05;;;4.70;;
18146;SDS011;9199;48.832;9.182;2024-03-02T09:55:15;7.85;;;4.78;;
18146;SDS011;9199;48.832;9.182;2024-03-02T09:57:43;7.93;;;4.60;;
18146;SDS011;9199;48.832;9.182;2024-03-02T10:00:11;8.93;;;4.80;;
18146;SDS011;9199;48.832;9.182;2024-03-02T10:02:39;6.97;;;4.60;;
18146;SDS011;9199;48.832;9.182;2024-03-02T10:05:08;7.47;;;4.65;;
18146;SDS011;9199;48.832;9.182;2024-03-02T10:07:36;6.75;;;4.10;;
18146;SDS011;9199;48.832;9.182;2024-03-02T10:10:12;7.40;;;4.35;;
18146;SDS011;9199;48.832;9.182;2024-03-02T10:12:39;7.10;;;4.40;;
18146;SDS011;9199;48.832;9.182;2024-03-02T10:15:06;6.93;;;4.20;;
18146;SDS011;9199;48.832;9.182;2024-03-02T10:17:34;6.80;;;4.18;;
18146;SDS011;9199;48.832;9.182;2024-03-02T10:20:10;5.90;;;3.75;;
18146;SDS011;9199;48.832;9.182;2024-03-02T10:22:48;7.50;;;3.67;;
18146;SDS011;9199;48.832;9.182;2024-03-02T10:25:27;7.67;;;4.00;;
18146;SDS011;9199;48.832;9.182;2024-03-02T10:27:56;6.22;;;3.83;;
18146;SDS011;9199;48.832;9.182;2024-03-02T10:30:24;6.55;;;3.60;;
18146;SDS011;9199;48.832;9.182;2024-03-02T10:32:50;7.75;;;3.60;;
18146;SDS011;9199;48.832;9.182;2024-03-02T10:35:20;6.43;;;3.45;;
18146;SDS011;9199;48.832;9.182;2024-03-02T10:37:48;6.13;;;3.47;;
18146;SDS011;9199;48.832;9.182;2024-03-02T10:40:15;7.20;;;3.60;;
18146;SDS011;9199;48.832;9.182;2024-03-02T10:42:42;7.10;;;4.07;;
18146;SDS011;9199;48.832;9.182;2024-03-02T10:45:11;5.53;;;3.80;;
18146;SDS011;9199;48.832;9.182;2024-03-02T10:47:40;5.82;;;3.40;;
18146;SDS011;9199;48.832;9.182;2024-03-02T10:50:08;5.77;;;3.70;;
18146;SDS011;9199;48.832;9.182;2024-03-02T10:52:36;5.65;;;3.28;;
18146;SDS011;9199;48.832;9.182;2024-03-02T10:55:04;5.60;;;3.60;;
18146;SDS011;9199;48.832;9.182;2024-03-02T10:57:36;5.63;;;3.45;;
18146;SDS011;9199;48.832;9.182;2024-03-02T11:00:08;5.15;;;3.20;;
18146;SDS011;9199;48.832;9.182;2024-03-02T11:02:40;5.50;;;3.47;;
18146;SDS011;9199;48.832;9.182;2024-03-02T11:05:11;5.50;;;3.40;;
18146;SDS011;9199;48.832;9.182;2024-03-02T11:07:42;7.32;;;3.30;;
18146;SDS011;9199;48.832;9.182;2024-03-02T11:10:09;5.43;;;3.50;;
18146;SDS011;9199;48.832;9.182;2024-03-02T11:12:39;4.85;;;3.20;;
18146;SDS011;9199;48.832;9.182;2024-03-02T11:15:15;6.00;;;3.43;;
18146;SDS011;9199;48.832;9.182;2024-03-02T11:17:45;5.28;;;3.10;;
18146;SDS011;9199;48.832;9.182;2024-03-02T11:20:13;5.85;;;3.60;;
18146;SDS011;9199;48.832;9.182;2024-03-02T11:22:41;4.97;;;2.80;;
18146;SDS011;9199;48.832;9.182;2024-03-02T11:25:22;6.50;;;3.10;;
18146;SDS011;9199;48.832;9.182;2024-03-02T11:27:59;6.00;;;2.87;;
18146;SDS011;9199;48.832;9.182;2024-03-02T11:33:16;5.05;;;2.90;;
18146;SDS011;9199;48.832;9.182;2024-03-02T11:35:54;4.72;;;2.85;;
18146;SDS011;9199;48.832;9.182;2024-03-02T11:38:23;4.50;;;2.65;;
18146;SDS011;9199;48.832;9.182;2024-03-02T11:40:59;5.33;;;2.60;;
18146;SDS011;9199;48.832;9.182;2024-03-02T11:43:27;4.20;;;2.30;;
18146;SDS011;9199;48.832;9.182;2024-03-02T11:45:57;4.43;;;2.03;;
18146;SDS011;9199;48.832;9.182;2024-03-02T11:48:24;4.80;;;2.15;;
18146;SDS011;9199;48.832;9.182;2024-03-02T11:50:52;3.55;;;1.83;;
18146;SDS011;9199;48.832;9.182;2024-03-02T11:53:19;3.53;;;1.60;;
18146;SDS011;9199;48.832;9.182;2024-03-02T11:55:48;4.10;;;1.55;;
18146;SDS011;9199;48.832;9.182;2024-03-02T11:58:16;2.78;;;1.40;;
18146;SDS011;9199;48.832;9.182;2024-03-02T12:00:45;3.67;;;1.50;;
18146;SDS011;9199;48.832;9.182;2024-03-02T12:03:12;3.80;;;1.63;;
18146;SDS011;9199;48.832;9.182;2024-03-02T12:05:40;3.03;;;1.20;;
18146;SDS011;9199;48.832;9.182;2024-03-02T12:08:08;1.70;;;0.70;;
18146;SDS011;9199;48.832;9.182;2024-03-02T12:10:35;1.80;;;0.80;;
18146;SDS011;9199;48.832;9.182;2024-03-02T12:13:04;1.90;;;0.70;;
18146;SDS011;9199;48.832;9.182;2024-03-02T12:15:33;2.22;;;0.93;;
18146;SDS011;9199;48.832;9.182;2024-03-02T12:18:02;1.80;;;0.60;;
18146;SDS011;9199;48.832;9.182;2024-03-02T12:20:29;1.77;;;0.55;;
18146;SDS011;9199;48.832;9.182;2024-03-02T12:22:58;2.28;;;0.80;;
18146;SDS011;9199;48.832;9.182;2024-03-02T12:25:26;2.15;;;0.85;;
18146;SDS011;9199;48.832;9.182;2024-03-02T12:27:53;2.30;;;0.80;;
18146;SDS011;9199;48.832;9.182;2024-03-02T12:30:22;1.80;;;0.80;;
18146;SDS011;9199;48.832;9.182;2024-03-02T12:32:50;2.30;;;0.90;;
18146;SDS011;9199;48.832;9.182;2024-03-02T12:35:17;1.60;;;0.70;;
18146;SDS011;9199;48.832;9.182;2024-03-02T12:37:44;1.63;;;0.80;;
18146;SDS011;9199;48.832;9.182;2024-03-02T12:40:12;1.48;;;0.63;;
18146;SDS011;9199;48.832;9.182;2024-03-02T12:42:39;1.50;;;0.70;;
18146;SDS011;9199;48.832;9.182;2024-03-02T12:45:07;2.00;;;0.75;;
18146;SDS011;9199;48.832;9.182;2024-03-02T12:47:36;1.30;;;0.60;;
18146;SDS011;9199;48.832;9.182;2024-03-02T12:50:03;1.90;;;0.75;;
18146;SDS011;9199;48.832;9.182;2024-03-02T12:52:31;2.78;;;0.80;;
18146;SDS011;9199;48.832;9.182;2024-03-02T12:54:59;1.60;;;0.77;;
18146;SDS011;9199;48.832;9.182;2024-03-02T12:57:28;1.23;;;0.68;;
18146;SDS011;9199;48.832;9.182;2024-03-02T12:59:57;1.48;;;0.80;;
18146;SDS011;9199;48.832;9.182;2024-03-02T13:02:27;2.03;;;0.80;;
18146;SDS011;9199;48.832;9.182;2024-03-02T13:04:56;1.85;;;0.80;;
18146;SDS011;9199;48.832;9.182;2024-03-02T13:07:24;3.43;;;0.90;;
18146;SDS011;9199;48.832;9.182;2024-03-02T13:09:51;2.28;;;1.00;;
18146;SDS011;9199;48.832;9.182;2024-03-02T13:12:20;2.17;;;0.98;;
18146;SDS011;9199;48.832;9.182;2024-03-02T13:14:48;2.10;;;0.80;;
18146;SDS011;9199;48.832;9.182;2024-03-02T13:17:16;2.08;;;1.00;;
18146;SDS011;9199;48.832;9.182;2024-03-02T13:19:50;2.90;;;1.00;;
18146;SDS011;9199;48.832;9.182;2024-03-02T13:22:19;2.22;;;0.77;;
18146;SDS011;9199;48.832;9.182;2024-03-02T13:24:46;2.10;;;0.90;;
18146;SDS011;9199;48.832;9.182;2024-03-02T13:27:13;3.40;;;1.73;;
18146;SDS011;9199;48.832;9.182;2024-03-02T13:29:39;3.70;;;1.00;;
18146;SDS011;9199;48.832;9.182;2024-03-02T13:32:06;2.63;;;1.37;;
18146;SDS011;9199;48.832;9.182;2024-03-02T13:34:34;2.85;;;1.13;;
18146;SDS011;9199;48.832;9.182;2024-03-02T13:37:01;2.75;;;1.20;;
18146;SDS011;9199;48.832;9.182;2024-03-02T13:39:30;3.40;;;1.10;;
18146;SDS011;9199;48.832;9.182;2024-03-02T13:41:56;2.45;;;1.20;;
18146;SDS011;9199;48.832;9.182;2024-03-02T13:44:29;2.00;;;1.00;;
18146;SDS011;9199;48.832;9.182;2024-03-02T13:46:55;2.33;;;1.10;;
18146;SDS011;9199;48.832;9.182;2024-03-02T13:49:23;2.10;;;1.05;;
18146;SDS011;9199;48.832;9.182;2024-03-02T13:51:53;1.92;;;1.00;;
18146;SDS011;9199;48.832;9.182;2024-03-02T13:54:21;1.98;;;0.98;;
18146;SDS011;9199;48.832;9.182;2024-03-02T13:56:49;2.00;;;0.90;;
18146;SDS011;9199;48.832;9.182;2024-03-02T13:59:16;2.10;;;1.00;;
18146;SDS011;9199;48.832;9.182;2024-03-02T14:01:44;2.22;;;1.15;;
18146;SDS011;9199;48.832;9.182;2024-03-02T14:04:10;2.35;;;1.13;;
18146;SDS011;9199;48.832;9.182;2024-03-02T14:06:37;2.78;;;1.10;;
18146;SDS011;9199;48.832;9.182;2024-03-02T14:09:04;2.53;;;1.30;;
18146;SDS011;9199;48.832;9.182;2024-03-02T14:11:31;2.40;;;1.20;;
18146;SDS011;9199;48.832;9.182;2024-03-02T14:13:59;2.65;;;1.20;;
18146;SDS011;9199;48.832;9.182;2024-03-02T14:16:26;2.40;;;1.10;;
18146;SDS011;9199;48.832;9.182;2024-03-02T14:18:52;2.63;;;0.95;;
18146;SDS011;9199;48.832;9.182;2024-03-02T14:21:19;2.67;;;1.20;;
18146;SDS011;9199;48.832;9.182;2024-03-02T14:23:46;2.80;;;1.40;;
18146;SDS011;9199;48.832;9.182;2024-03-02T14:26:12;2.55;;;1.10;;
18146;SDS011;9199;48.832;9.182;2024-03-02T14:28:39;2.58;;;1.20;;
18146;SDS011;9199;48.832;9.182;2024-03-02T14:31:07;2.67;;;1.20;;
18146;SDS011;9199;48.832;9.182;2024-03-02T14:33:34;2.53;;;1.27;;
18146;SDS011;9199;48.832;9.182;2024-03-02T14:36:00;1.77;;;0.88;;
18146;SDS011;9199;48.832;9.182;2024-03-02T14:38:29;2.90;;;1.02;;
18146;SDS011;9199;48.832;9.182;2024-03-02T14:40:56;2.67;;;1.10;;
18146;SDS011;9199;48.832;9.182;2024-03-02T14:43:23;1.92;;;1.00;;
18146;SDS011;9199;48.832;9.182;2024-03-02T14:45:50;2.17;;;1.00;;
18146;SDS011;9199;48.832;9.182;2024-03-02T14:48:18;2.88;;;1.08;;
18146;SDS011;9199;48.832;9.182;2024-03-02T14:50:45;2.22;;;1.20;;
18146;SDS011;9199;48.832;9.182;2024-03-02T14:53:11;2.60;;;1.08;;
18146;SDS011;9199;48.832;9.182;2024-03-02T14:55:38;2.40;;;1.20;;